createdAt,value
2022-08-23T00:01:48.015Z,19.07
2022-08-23T00:04:19.801Z,19.50
2022-08-23T00:06:49.428Z,19.97
2022-08-23T00:09:19.198Z,19.63
2022-08-23T00:11:52.636Z,20.30
2022-08-23T00:14:25.244Z,20.00
2022-08-23T00:16:54.512Z,20.10
2022-08-23T00:19:24.573Z,17.37
2022-08-23T00:21:55.365Z,20.43
2022-08-23T00:24:25.513Z,18.93
2022-08-23T00:27:00.641Z,20.80
2022-08-23T00:29:33.953Z,19.30
2022-08-23T00:32:03.194Z,18.40
2022-08-23T00:34:32.476Z,18.80
2022-08-23T00:37:01.245Z,19.50
2022-08-23T00:39:30.035Z,20.30
2022-08-23T00:42:02.199Z,21.00
2022-08-23T00:44:52.200Z,19.33
2022-08-23T00:47:41.128Z,20.07
2022-08-23T00:50:24.213Z,19.20
2022-08-23T00:53:02.452Z,19.37
2022-08-23T00:55:32.404Z,19.97
2022-08-23T00:58:03.579Z,20.03
2022-08-23T01:00:34.221Z,18.30
2022-08-23T01:03:04.578Z,18.50
2022-08-23T01:05:45.543Z,19.87
2022-08-23T01:08:14.200Z,18.77
2022-08-23T01:10:47.679Z,18.70
2022-08-23T01:13:30.338Z,20.03
2022-08-23T01:16:02.307Z,20.13
2022-08-23T01:18:33.231Z,18.53
2022-08-23T01:21:10.493Z,18.13
2022-08-23T01:23:45.009Z,16.80
2022-08-23T01:26:21.728Z,19.93
2022-08-23T01:28:51.435Z,18.07
2022-08-23T01:31:21.001Z,20.27
2022-08-23T01:33:55.673Z,18.93
2022-08-23T01:36:24.730Z,19.47
2022-08-23T01:38:54.801Z,19.97
2022-08-23T01:41:23.932Z,20.90
2022-08-23T01:43:53.057Z,19.23
2022-08-23T01:46:23.504Z,19.30
2022-08-23T01:48:52.730Z,20.97
2022-08-23T01:51:23.133Z,21.33
2022-08-23T01:53:51.873Z,22.87
2022-08-23T01:56:38.089Z,21.17
2022-08-23T01:59:08.987Z,22.10
2022-08-23T02:01:38.412Z,21.43
2022-08-23T02:04:07.747Z,20.30
2022-08-23T02:06:36.581Z,19.20
2022-08-23T02:09:17.887Z,19.63
2022-08-23T02:11:49.552Z,21.20
2022-08-23T02:14:21.146Z,21.80
2022-08-23T02:17:03.802Z,19.67
2022-08-23T02:19:35.125Z,18.07
2022-08-23T02:22:04.759Z,20.07
2022-08-23T02:24:34.638Z,21.33
2022-08-23T02:27:06.659Z,22.53
2022-08-23T02:29:39.057Z,19.87
2022-08-23T02:32:09.680Z,19.63
2022-08-23T02:34:38.885Z,20.47
2022-08-23T02:37:08.411Z,19.00
2022-08-23T02:39:38.936Z,17.70
2022-08-23T02:42:11.754Z,18.40
2022-08-23T02:44:40.836Z,17.10
2022-08-23T02:47:09.633Z,15.43
2022-08-23T02:49:38.289Z,15.20
2022-08-23T02:52:08.597Z,14.67
2022-08-23T02:54:37.642Z,15.20
2022-08-23T02:57:07.037Z,13.80
2022-08-23T02:59:37.573Z,14.80
2022-08-23T03:02:06.407Z,14.67
2022-08-23T03:04:35.138Z,15.87
2022-08-23T03:07:03.857Z,14.30
2022-08-23T03:09:32.860Z,14.20
2022-08-23T03:12:01.616Z,14.57
2022-08-23T03:14:30.358Z,13.57
2022-08-23T03:17:01.424Z,13.37
2022-08-23T03:19:30.331Z,13.63
2022-08-23T03:21:59.025Z,12.40
2022-08-23T03:24:28.165Z,13.90
2022-08-23T03:26:56.841Z,13.20
2022-08-23T03:29:25.517Z,14.23
2022-08-23T03:31:54.187Z,14.23
2022-08-23T03:34:24.329Z,14.40
2022-08-23T03:36:53.303Z,14.67
2022-08-23T03:39:22.272Z,14.80
2022-08-23T03:41:50.959Z,14.60
2022-08-23T03:44:19.775Z,14.33
2022-08-23T03:46:48.460Z,13.53
2022-08-23T03:49:17.206Z,14.60
2022-08-23T03:51:47.785Z,13.47
2022-08-23T03:54:16.452Z,14.07
2022-08-23T03:56:53.551Z,14.20
2022-08-23T03:59:22.616Z,12.37
2022-08-23T04:01:51.598Z,12.87
2022-08-23T04:04:20.289Z,13.27
2022-08-23T04:06:50.424Z,13.67
2022-08-23T04:09:19.091Z,12.50
2022-08-23T04:11:47.886Z,13.20
2022-08-23T04:14:16.775Z,13.90
2022-08-23T04:16:45.443Z,14.13
2022-08-23T04:19:16.251Z,13.47
2022-08-23T04:21:50.148Z,13.47
2022-08-23T04:24:21.322Z,12.67
2022-08-23T04:26:50.032Z,12.77
2022-08-23T04:29:31.458Z,10.53
2022-08-23T04:32:05.612Z,11.57
2022-08-23T04:34:37.107Z,12.27
2022-08-23T04:37:09.281Z,11.80
2022-08-23T04:39:54.147Z,12.03
2022-08-23T04:42:23.573Z,11.77
2022-08-23T04:44:52.478Z,10.80
2022-08-23T04:47:21.766Z,11.00
2022-08-23T04:49:50.518Z,10.63
2022-08-23T04:52:19.797Z,11.60
2022-08-23T04:54:49.998Z,10.90
2022-08-23T04:57:18.631Z,11.13
2022-08-23T04:59:47.277Z,11.87
2022-08-23T05:02:16.140Z,11.40
2022-08-23T05:04:44.838Z,12.40
2022-08-23T05:07:13.501Z,11.27
2022-08-23T05:09:42.233Z,11.53
2022-08-23T05:12:12.328Z,11.10
2022-08-23T05:14:41.037Z,11.57
2022-08-23T05:17:13.020Z,12.10
2022-08-23T05:19:44.332Z,11.37
2022-08-23T05:22:15.830Z,11.17
2022-08-23T05:24:44.656Z,11.17
2022-08-23T05:27:14.882Z,9.60
2022-08-23T05:29:43.489Z,10.60
2022-08-23T05:32:12.171Z,9.97
2022-08-23T05:34:40.899Z,8.40
2022-08-23T05:37:09.831Z,9.33
2022-08-23T05:39:38.979Z,8.57
2022-08-23T05:42:08.975Z,10.17
2022-08-23T05:44:39.342Z,9.30
2022-08-23T05:47:10.264Z,8.87
2022-08-23T05:49:40.926Z,9.90
2022-08-23T05:52:12.024Z,8.57
2022-08-23T05:54:41.373Z,10.13
2022-08-23T05:57:11.748Z,9.40
2022-08-23T05:59:42.222Z,9.60
2022-08-23T06:02:11.162Z,9.47
2022-08-23T06:04:39.907Z,11.30
2022-08-23T06:07:10.135Z,9.43
2022-08-23T06:09:39.343Z,9.37
2022-08-23T06:12:08.232Z,10.30
2022-08-23T06:14:36.936Z,9.83
2022-08-23T06:17:07.184Z,10.00
2022-08-23T06:19:36.142Z,11.70
2022-08-23T06:22:05.022Z,11.20
2022-08-23T06:24:33.792Z,10.10
2022-08-23T06:27:02.510Z,10.03
2022-08-23T06:29:31.244Z,11.90
2022-08-23T06:31:59.846Z,9.60
2022-08-23T06:34:33.722Z,11.33
2022-08-23T06:37:04.290Z,10.00
2022-08-23T06:39:37.338Z,11.57
2022-08-23T06:42:27.993Z,10.37
2022-08-23T06:44:57.839Z,10.20
2022-08-23T06:47:26.438Z,11.13
2022-08-23T06:49:58.263Z,11.60
2022-08-23T06:52:28.611Z,10.83
2022-08-23T06:54:57.555Z,11.30
2022-08-23T06:57:26.850Z,11.63
2022-08-23T06:59:55.962Z,11.80
2022-08-23T07:02:24.590Z,11.67
2022-08-23T07:04:54.426Z,11.90
2022-08-23T07:07:24.530Z,11.57
2022-08-23T07:10:10.200Z,12.53
2022-08-23T07:12:42.713Z,12.30
2022-08-23T07:15:15.662Z,12.50
2022-08-23T07:17:44.338Z,11.93
2022-08-23T07:20:13.130Z,11.30
2022-08-23T07:22:44.735Z,11.10
2022-08-23T07:25:13.658Z,11.80
2022-08-23T07:27:43.166Z,11.40
2022-08-23T07:30:12.785Z,11.73
2022-08-23T07:32:42.244Z,12.40
2022-08-23T07:35:11.254Z,12.83
2022-08-23T07:37:40.396Z,12.03
2022-08-23T07:40:20.280Z,11.60
2022-08-23T07:42:49.406Z,13.60
2022-08-23T07:45:18.813Z,12.50
2022-08-23T07:47:51.814Z,12.00
2022-08-23T07:50:21.242Z,11.97
2022-08-23T07:52:50.476Z,13.40
2022-08-23T07:55:20.985Z,13.40
2022-08-23T07:57:50.119Z,12.47
2022-08-23T08:00:19.261Z,12.80
2022-08-23T08:02:49.035Z,12.87
2022-08-23T08:05:21.795Z,13.57
2022-08-23T08:07:50.952Z,12.43
2022-08-23T08:10:21.341Z,13.63
2022-08-23T08:12:52.262Z,12.63
2022-08-23T08:15:22.229Z,13.13
2022-08-23T08:17:51.679Z,12.43
2022-08-23T08:20:22.761Z,13.10
2022-08-23T08:22:58.616Z,13.00
2022-08-23T08:25:34.349Z,12.20
2022-08-23T08:28:03.144Z,12.93
2022-08-23T08:30:31.972Z,13.00
2022-08-23T08:33:01.449Z,11.50
2022-08-23T08:35:31.348Z,12.10
2022-08-23T08:38:01.727Z,11.93
2022-08-23T08:40:40.316Z,11.37
2022-08-23T08:43:30.913Z,10.13
2022-08-23T08:46:06.920Z,10.17
2022-08-23T08:48:45.627Z,10.23
2022-08-23T08:51:28.887Z,9.40
2022-08-23T08:54:00.355Z,9.63
2022-08-23T08:56:35.094Z,9.60
2022-08-23T08:59:07.000Z,10.43
2022-08-23T09:01:38.681Z,10.87
2022-08-23T09:04:08.446Z,10.03
2022-08-23T09:06:48.827Z,9.70
2022-08-23T09:09:29.974Z,10.27
2022-08-23T09:12:10.911Z,11.53
2022-08-23T09:15:04.696Z,10.87
2022-08-23T09:17:43.946Z,10.67
2022-08-23T09:20:15.491Z,10.70
2022-08-23T09:22:47.509Z,10.53
2022-08-23T09:25:18.355Z,10.30
2022-08-23T09:27:49.094Z,10.30
2022-08-23T09:30:20.700Z,11.67
2022-08-23T09:32:53.861Z,15.53
2022-08-23T09:35:26.221Z,11.27
2022-08-23T09:38:00.764Z,9.93
2022-08-23T09:40:38.965Z,10.70
2022-08-23T09:43:16.133Z,9.63
2022-08-23T09:45:57.171Z,10.00
2022-08-23T09:48:37.686Z,9.97
2022-08-23T09:51:13.115Z,8.83
2022-08-23T09:53:45.944Z,9.47
2022-08-23T09:56:19.866Z,9.60
2022-08-23T09:58:52.912Z,9.20
2022-08-23T10:01:25.130Z,9.87
2022-08-23T10:04:12.720Z,9.33
2022-08-23T10:06:43.549Z,8.80
2022-08-23T10:09:25.194Z,9.57
2022-08-23T10:11:55.131Z,12.10
2022-08-23T10:14:28.788Z,11.93
2022-08-23T10:17:08.150Z,10.13
2022-08-23T10:19:44.030Z,9.60
2022-08-23T10:22:20.886Z,8.80
2022-08-23T10:24:58.932Z,9.87
2022-08-23T10:28:06.982Z,8.13
2022-08-23T10:30:43.487Z,8.97
2022-08-23T10:33:19.975Z,8.40
2022-08-23T10:35:59.550Z,7.80
2022-08-23T10:38:49.007Z,8.40
2022-08-23T10:41:34.149Z,7.73
2022-08-23T10:44:18.238Z,9.40
2022-08-23T10:46:56.774Z,8.20
2022-08-23T10:49:26.727Z,7.83
2022-08-23T10:51:56.811Z,7.53
2022-08-23T10:54:46.314Z,8.17
2022-08-23T10:57:17.949Z,8.10
2022-08-23T10:59:48.971Z,7.90
2022-08-23T11:02:31.815Z,7.57
2022-08-23T11:05:07.843Z,6.43
2022-08-23T11:07:38.523Z,7.67
2022-08-23T11:10:19.379Z,6.93
2022-08-23T11:12:58.771Z,6.63
2022-08-23T11:15:44.608Z,7.30
2022-08-23T11:18:40.269Z,7.70
2022-08-23T11:21:25.458Z,6.60
2022-08-23T11:23:58.527Z,7.70
2022-08-23T11:27:06.865Z,7.90
2022-08-23T11:29:40.517Z,8.00
2022-08-23T11:32:39.776Z,7.00
2022-08-23T11:35:28.909Z,9.00
2022-08-23T11:38:04.178Z,7.27
2022-08-23T11:40:59.393Z,7.70
2022-08-23T11:43:34.573Z,7.00
2022-08-23T11:46:27.103Z,5.73
2022-08-23T11:49:04.598Z,7.17
2022-08-23T11:51:44.578Z,6.43
2022-08-23T11:54:44.344Z,8.40
2022-08-23T11:57:48.481Z,6.80
2022-08-23T12:03:35.452Z,8.83
2022-08-23T12:06:39.151Z,23.03
2022-08-23T12:10:14.067Z,15.60
2022-08-23T12:12:48.552Z,20.23
2022-08-23T12:15:19.320Z,16.60
2022-08-23T12:18:13.769Z,9.30
2022-08-23T12:20:47.084Z,9.30
2022-08-23T12:23:22.809Z,9.87
2022-08-23T12:26:11.389Z,12.23
2022-08-23T12:28:48.407Z,9.97
2022-08-23T12:31:28.687Z,10.20
2022-08-23T12:34:18.744Z,11.00
2022-08-23T12:36:55.975Z,11.20
2022-08-23T12:39:30.390Z,13.00
2022-08-23T12:42:06.938Z,15.33
2022-08-23T12:44:37.838Z,17.30
2022-08-23T12:47:28.798Z,16.97
2022-08-23T12:50:01.155Z,15.37
2022-08-23T12:52:34.430Z,18.10
2022-08-23T12:55:03.657Z,16.77
2022-08-23T12:57:38.740Z,18.03
2022-08-23T13:00:20.374Z,16.43
2022-08-23T13:02:53.307Z,19.13
2022-08-23T13:05:29.263Z,23.70
2022-08-23T13:07:58.655Z,21.43
2022-08-23T13:10:27.586Z,21.80
2022-08-23T13:12:57.934Z,21.77
2022-08-23T13:15:44.955Z,17.40
2022-08-23T13:18:28.897Z,16.50
2022-08-23T13:21:20.329Z,18.03
2022-08-23T13:23:49.020Z,17.97
2022-08-23T13:26:37.265Z,25.00
2022-08-23T13:29:11.253Z,21.20
2022-08-23T13:32:03.436Z,23.60
2022-08-23T13:34:47.007Z,17.30
2022-08-23T13:37:22.977Z,18.80
2022-08-23T13:39:56.165Z,17.60
2022-08-23T13:42:33.865Z,19.93
2022-08-23T13:45:14.313Z,19.17
2022-08-23T13:47:48.845Z,20.20
2022-08-23T13:50:24.045Z,20.10
2022-08-23T13:55:45.149Z,21.50
2022-08-23T13:58:17.317Z,21.10
2022-08-23T14:00:55.204Z,20.57
2022-08-23T14:03:26.230Z,21.40
2022-08-23T14:05:54.941Z,20.70
2022-08-23T14:08:23.897Z,21.63
2022-08-23T14:10:52.836Z,22.83
2022-08-23T14:13:24.825Z,23.73
2022-08-23T14:15:56.728Z,21.63
2022-08-23T14:18:27.885Z,22.27
2022-08-23T14:20:56.789Z,22.33
2022-08-23T14:23:25.647Z,22.73
2022-08-23T14:25:59.384Z,23.50
2022-08-23T14:28:31.555Z,23.10
2022-08-23T14:31:02.569Z,22.90
2022-08-23T14:33:31.530Z,23.53
2022-08-23T14:36:00.209Z,22.30
2022-08-23T14:38:29.761Z,22.10
2022-08-23T14:41:00.789Z,21.60
2022-08-23T14:43:31.067Z,20.00
2022-08-23T14:46:01.606Z,22.47
2022-08-23T14:48:31.275Z,20.60
2022-08-23T14:51:00.977Z,19.57
2022-08-23T14:53:32.145Z,20.03
2022-08-23T14:56:20.553Z,19.30
2022-08-23T14:58:50.219Z,19.00
2022-08-23T15:01:21.760Z,18.27
2022-08-23T15:03:51.113Z,20.03
2022-08-23T15:06:22.468Z,18.50
2022-08-23T15:08:52.401Z,18.80
2022-08-23T15:14:10.100Z,19.10
2022-08-23T15:16:41.861Z,17.10
2022-08-23T15:19:10.799Z,18.27
2022-08-23T15:21:39.605Z,16.90
2022-08-23T15:24:09.861Z,16.27
2022-08-23T15:26:40.800Z,15.33
2022-08-23T15:29:14.058Z,15.73
2022-08-23T15:31:51.978Z,16.47
2022-08-23T15:34:21.897Z,16.40
2022-08-23T15:36:52.450Z,16.00
2022-08-23T15:39:21.439Z,17.43
2022-08-23T15:41:50.605Z,17.90
2022-08-23T15:44:20.678Z,18.67
2022-08-23T15:46:51.456Z,17.57
2022-08-23T15:49:29.989Z,17.70
2022-08-23T15:52:02.156Z,19.70
2022-08-23T15:54:40.767Z,20.63
2022-08-23T15:57:14.953Z,19.80
2022-08-23T15:59:45.312Z,20.30
2022-08-23T16:02:37.203Z,20.37
2022-08-23T16:05:15.535Z,20.33
2022-08-23T16:07:52.373Z,20.30
2022-08-23T16:10:21.912Z,20.07
2022-08-23T16:12:52.500Z,22.07
2022-08-23T16:15:23.355Z,21.27
2022-08-23T16:17:54.231Z,21.50
2022-08-23T16:20:24.103Z,19.43
2022-08-23T16:22:52.711Z,20.97
2022-08-23T16:25:21.610Z,20.90
2022-08-23T16:27:57.392Z,21.80
2022-08-23T16:30:26.921Z,20.83
2022-08-23T16:33:52.392Z,21.17
2022-08-23T16:36:32.544Z,21.27
2022-08-23T16:39:04.923Z,22.30
2022-08-23T16:45:26.873Z,20.40
2022-08-23T16:48:02.349Z,21.10
2022-08-23T16:50:34.481Z,20.93
2022-08-23T16:53:07.481Z,21.80
2022-08-23T16:55:40.238Z,20.27
2022-08-23T16:58:14.329Z,21.30
2022-08-23T17:00:46.667Z,20.57
2022-08-23T17:03:56.325Z,21.53
2022-08-23T17:06:58.965Z,21.70
2022-08-23T17:12:42.261Z,20.20
2022-08-23T17:15:24.819Z,21.40
2022-08-23T17:17:55.637Z,21.37
2022-08-23T17:20:29.929Z,21.00
2022-08-23T17:22:59.960Z,21.87
2022-08-23T17:26:12.235Z,21.13
2022-08-23T17:29:22.922Z,20.97
2022-08-23T17:32:02.191Z,21.90
2022-08-23T17:34:34.448Z,21.37
2022-08-23T17:37:05.895Z,20.30
2022-08-23T17:39:36.517Z,21.60
2022-08-23T17:42:09.607Z,21.67
2022-08-23T17:44:38.815Z,22.03
2022-08-23T17:47:11.466Z,21.23
2022-08-23T17:49:40.871Z,21.83
2022-08-23T17:52:13.437Z,22.20
2022-08-23T17:54:42.559Z,23.63
2022-08-23T17:57:13.199Z,22.80
2022-08-23T17:59:42.141Z,24.30
2022-08-23T18:02:10.952Z,22.93
2022-08-23T18:04:40.778Z,21.77
2022-08-23T18:07:09.611Z,23.90
2022-08-23T18:09:43.762Z,22.83
2022-08-23T18:12:18.528Z,24.57
2022-08-23T18:14:48.759Z,24.37
2022-08-23T18:17:18.746Z,23.43
2022-08-23T18:19:50.375Z,22.80
2022-08-23T18:22:21.075Z,24.03
2022-08-23T18:24:52.972Z,23.90
2022-08-23T18:27:39.765Z,22.50
2022-08-23T18:30:13.414Z,23.60
2022-08-23T18:32:42.778Z,24.03
2022-08-23T18:35:13.749Z,21.77
2022-08-23T18:37:43.405Z,21.63
2022-08-23T18:40:35.183Z,23.33
2022-08-23T18:43:21.685Z,23.73
2022-08-23T18:45:59.004Z,23.47
2022-08-23T18:48:28.572Z,21.90
2022-08-23T18:50:58.405Z,22.87
2022-08-23T18:53:31.093Z,23.17
2022-08-23T18:56:01.725Z,23.90
2022-08-23T18:58:31.199Z,23.03
2022-08-23T19:01:06.534Z,23.37
2022-08-23T19:03:37.100Z,22.33
2022-08-23T19:06:07.708Z,22.43
2022-08-23T19:08:40.769Z,23.40
2022-08-23T19:11:16.682Z,23.27
2022-08-23T19:13:55.030Z,24.63
2022-08-23T19:17:05.473Z,22.53
2022-08-23T19:20:32.822Z,24.17
2022-08-23T19:23:34.755Z,23.40
2022-08-23T19:26:19.279Z,24.03
2022-08-23T19:28:51.180Z,24.30
2022-08-23T19:31:25.017Z,23.30
2022-08-23T19:33:57.758Z,23.43
2022-08-23T19:36:45.387Z,24.43
2022-08-23T19:39:19.752Z,24.00
2022-08-23T19:41:52.388Z,25.23
2022-08-23T19:44:25.211Z,23.50
2022-08-23T19:47:19.829Z,24.10
2022-08-23T19:49:53.657Z,23.03
2022-08-23T19:52:26.122Z,23.30
2022-08-23T19:55:05.749Z,25.40
2022-08-23T19:57:39.237Z,24.43
2022-08-23T20:00:19.068Z,25.23
2022-08-23T20:02:49.013Z,24.93
2022-08-23T20:05:20.290Z,25.30
2022-08-23T20:07:50.723Z,25.47
2022-08-23T20:10:21.565Z,24.57
2022-08-23T20:12:59.899Z,25.20
2022-08-23T20:15:30.925Z,23.90
2022-08-23T20:18:01.873Z,27.10
2022-08-23T20:20:30.885Z,24.70
2022-08-23T20:23:28.816Z,24.00
2022-08-23T20:25:57.978Z,24.00
2022-08-23T20:28:28.620Z,26.13
2022-08-23T20:30:58.109Z,26.73
2022-08-23T20:33:27.048Z,24.97
2022-08-23T20:35:55.874Z,26.37
2022-08-23T20:38:33.591Z,25.10
2022-08-23T20:41:03.350Z,25.10
2022-08-23T20:43:36.280Z,26.00
2022-08-23T20:46:05.447Z,25.17
2022-08-23T20:48:37.520Z,25.57
2022-08-23T20:51:08.386Z,24.47
2022-08-23T20:53:39.012Z,26.07
2022-08-23T20:56:08.463Z,24.43
2022-08-23T20:58:38.845Z,24.63
2022-08-23T21:01:10.254Z,25.23
2022-08-23T21:03:40.576Z,24.67
2022-08-23T21:06:11.687Z,26.93
2022-08-23T21:08:43.397Z,26.27
2022-08-23T21:11:14.257Z,27.60
2022-08-23T21:13:46.855Z,27.60
2022-08-23T21:16:17.554Z,27.57
2022-08-23T21:18:48.046Z,27.60
2022-08-23T21:21:21.571Z,29.37
2022-08-23T21:23:51.643Z,30.50
2022-08-23T21:26:24.605Z,32.13
2022-08-23T21:28:55.430Z,30.20
2022-08-23T21:31:26.378Z,31.10
2022-08-23T21:33:56.346Z,30.73
2022-08-23T21:36:25.683Z,30.90
2022-08-23T21:38:54.543Z,31.17
2022-08-23T21:41:32.586Z,29.60
2022-08-23T21:44:04.771Z,32.30
2022-08-23T21:46:34.293Z,33.80
2022-08-23T21:49:03.562Z,32.23
2022-08-23T21:51:34.882Z,32.10
2022-08-23T21:54:04.194Z,30.60
2022-08-23T21:56:33.087Z,33.40
2022-08-23T21:59:05.528Z,32.33
2022-08-23T22:01:35.945Z,30.07
2022-08-23T22:04:06.502Z,32.33
2022-08-23T22:06:36.637Z,30.70
2022-08-23T22:09:07.709Z,31.70
2022-08-23T22:11:40.821Z,32.00
2022-08-23T22:14:11.884Z,33.90
2022-08-23T22:16:41.426Z,34.10
2022-08-23T22:19:10.166Z,35.57
2022-08-23T22:21:39.493Z,34.90
2022-08-23T22:24:08.850Z,33.30
2022-08-23T22:26:38.118Z,34.17
2022-08-23T22:29:07.938Z,34.70
2022-08-23T22:31:39.826Z,37.27
2022-08-23T22:34:11.216Z,34.33
2022-08-23T22:36:40.490Z,35.70
2022-08-23T22:39:09.653Z,35.87
2022-08-23T22:41:39.271Z,38.03
2022-08-23T22:44:08.296Z,37.20
2022-08-23T22:46:38.420Z,37.50
2022-08-23T22:49:07.153Z,34.60
2022-08-23T22:51:37.536Z,38.80
2022-08-23T22:54:09.887Z,37.77
2022-08-23T22:56:42.819Z,39.30
2022-08-23T22:59:11.854Z,36.57
2022-08-23T23:01:45.378Z,41.90
2022-08-23T23:04:18.407Z,35.87
2022-08-23T23:06:49.350Z,37.00
2022-08-23T23:09:18.416Z,38.40
2022-08-23T23:11:48.335Z,38.70
2022-08-23T23:14:19.076Z,39.90
2022-08-23T23:16:50.400Z,39.37
2022-08-23T23:19:36.878Z,39.17
2022-08-23T23:22:07.601Z,38.73
2022-08-23T23:24:38.383Z,37.73
2022-08-23T23:27:07.989Z,38.97
2022-08-23T23:29:36.895Z,37.33
2022-08-23T23:32:07.434Z,38.20
2022-08-23T23:34:38.133Z,36.70
2022-08-23T23:37:06.783Z,38.00
2022-08-23T23:39:35.533Z,38.50
2022-08-23T23:42:04.211Z,39.37
2022-08-23T23:44:32.851Z,36.23
2022-08-23T23:47:02.117Z,38.33
2022-08-23T23:49:33.620Z,36.10
2022-08-23T23:52:04.229Z,36.20
2022-08-23T23:54:35.827Z,33.90
2022-08-23T23:57:05.684Z,38.23
2022-08-23T23:59:34.396Z,33.77
